Portada
METAR-TAF:

METAR-TAF

Aeropuertos :

Aeropuerto Internacional de Damasco

Damasco, Siria

latitud: 33-25N, longitud: 036-31E, altitud: 608 m

Observación

El informe se hizo hace 37 minutos, a las 02:00 UTC
Viento 10 kt del sur-suroeste
Temperatura 21°C
Humedad 83%
Presión 1005 hPa
Visibilidad 10 km o más
sin nubes por debajo de 1500 m y sin presencia de cumulonimbus.

METAR: OSDI 310200Z 21010KT CAVOK 21/18 Q1005

Hora: 05:37 (02:37 UTC)

Pronóstico

El informe se hizo hace 4 horas y 37 minutos, a las 22:00 UTC
Pronóstico válido del 31 a las 00 UTC al 01 a las 06 UTC
Viento 10 kt del suroeste
Visibilidad 10 km o más
sin nubes por debajo de 1500 m y sin presencia de cumulonimbus.
Temporalmente
del 31 a las 12 UTC al 31 a las 20 UTC
Viento 15 kt del oeste-suroeste con ráfagas de 25 kt

TAF: OSDI 302200Z 3100/0106 22010KT CAVOK TEMPO 3112/3120 24015G25KT

Observaciones y pronósticos meteorológicos de más de 4000 aeropuertos (mensajes METAR y TAF).

Los puntos amarillos y rojos representan las estaciones disponibles.

Ponga el ratón en el punto deseado para ver el nombre de la estación.

Haga clic para ver las observaciones y los pronósticos meteorológicos.

Para cambiar el mapa : haga clic en los botones verdes con una cruz de color negro para hacer un zoom, en el botón verde con un guión para alejar o en las flechas verdes para mapas adyacentes.


METAR-TAF: